Airfield :
LOGIN :

Register | Disclaimer

   EN    FR    IT 

 










Legend :    VFR   Marginal VFR   IFR   Intensive IFR   Very Intensive IFR
Visi :
Ceiling :
>= 8 km
>= 3000ft
5 to 8 km
1000 to 3000 ft
1500m to 5 km
500 to 1000 ft
800 to 1500m
200 to 500 ft
< 800m
< 200 ft
Symbols :   Thunderstorms  Fog  Heavy snow  Heavy precipitations  Wind > 20 kt
SIGMETs :     Misc.  Thunderstorms  Icing  Turbulence  Mountain Waves  Volcanic Ashes







- Airport Elevation : 74 ft
- IATA code : MRS
- Download approach charts


LFML - Marseille / Marignane

CURRENT METAR :
  • 162200Z AUTO VRB02KT 6000 NSC 13/11 Q1027 TEMPO 4000 BR BKN014

EXPIRED METARs :
  • 162130Z AUTO 13004KT 6000 NSC 14/11 Q1027 TEMPO 4000 BR BKN014
  • 162100Z AUTO 13004KT 7000 FEW008 14/12 Q1027 TEMPO 4000 BR BKN014
  • 162030Z AUTO VRB01KT CAVOK 16/14 Q1027 TEMPO 4000 BR BKN014
  • 162000Z AUTO 11002KT CAVOK 15/12 Q1027 BECMG BKN008
  • 161930Z AUTO 12003KT CAVOK 16/14 Q1027 BECMG BKN008

TAF TAF LFML
Valid from the 16 at 21:00 until the 18 at 03:00 UTC


162000Z 1621/1803 VRB03KT CAVOK
TEMPO 1621/1707 4000 BR BKN014
PROB30
TEMPO 1700/1706 1500 BR BKN008
TEMPO 1709/1716 20007KT TX24/1712Z TN11/1704Z
ATIS : +33 4 42 31 15 15
No reported NOTAMs for that airfield.



MET'MAP, your aeronautical weather chart ! - Copyright ORBIFLY December 2007 - Disclaimer

ORBIFLY MET'MAP TEAM :

Programming & Development : Alexandra Zaïnal
Concept & Development : Baudouin d'Aumeries
Co-Development & Prog : Marc-Olivier Méhu
Technical & hardware support : Manuel Goepfert

Contact : metmap@orbifly.com




SOURCES & CREDITS :

   NOAA